sensor_id;sensor_type;location;lat;lon;timestamp;P1;durP1;ratioP1;P2;durP2;ratioP2
3311;SDS011;1668;49.648;8.570;2023-09-08T00:00:59;8.77;;;5.00;;
3311;SDS011;1668;49.648;8.570;2023-09-08T00:03:26;6.90;;;4.93;;
3311;SDS011;1668;49.648;8.570;2023-09-08T00:05:52;6.80;;;5.23;;
3311;SDS011;1668;49.648;8.570;2023-09-08T00:08:19;8.77;;;5.30;;
3311;SDS011;1668;49.648;8.570;2023-09-08T00:10:48;8.20;;;5.13;;
3311;SDS011;1668;49.648;8.570;2023-09-08T00:13:15;10.83;;;4.97;;
3311;SDS011;1668;49.648;8.570;2023-09-08T00:15:41;8.97;;;5.80;;
3311;SDS011;1668;49.648;8.570;2023-09-08T00:18:08;6.37;;;4.83;;
3311;SDS011;1668;49.648;8.570;2023-09-08T00:20:37;6.93;;;5.40;;
3311;SDS011;1668;49.648;8.570;2023-09-08T00:23:03;7.63;;;5.47;;
3311;SDS011;1668;49.648;8.570;2023-09-08T00:25:30;8.77;;;5.30;;
3311;SDS011;1668;49.648;8.570;2023-09-08T00:27:58;10.70;;;5.10;;
3311;SDS011;1668;49.648;8.570;2023-09-08T00:30:25;11.03;;;5.53;;
3311;SDS011;1668;49.648;8.570;2023-09-08T00:32:52;7.87;;;5.27;;
3311;SDS011;1668;49.648;8.570;2023-09-08T00:35:19;6.93;;;5.13;;
3311;SDS011;1668;49.648;8.570;2023-09-08T00:37:45;7.00;;;5.73;;
3311;SDS011;1668;49.648;8.570;2023-09-08T00:40:12;7.00;;;5.33;;
3311;SDS011;1668;49.648;8.570;2023-09-08T00:42:39;6.67;;;4.90;;
3311;SDS011;1668;49.648;8.570;2023-09-08T00:45:08;7.60;;;5.50;;
3311;SDS011;1668;49.648;8.570;2023-09-08T00:47:35;6.00;;;5.07;;
3311;SDS011;1668;49.648;8.570;2023-09-08T00:50:02;8.73;;;5.77;;
3311;SDS011;1668;49.648;8.570;2023-09-08T00:52:30;5.97;;;5.00;;
3311;SDS011;1668;49.648;8.570;2023-09-08T00:54:59;8.20;;;5.87;;
3311;SDS011;1668;49.648;8.570;2023-09-08T00:57:26;6.40;;;5.00;;
3311;SDS011;1668;49.648;8.570;2023-09-08T00:59:53;6.93;;;5.50;;
3311;SDS011;1668;49.648;8.570;2023-09-08T01:02:21;6.37;;;5.33;;
3311;SDS011;1668;49.648;8.570;2023-09-08T01:04:48;7.43;;;5.57;;
3311;SDS011;1668;49.648;8.570;2023-09-08T01:07:16;8.47;;;5.40;;
3311;SDS011;1668;49.648;8.570;2023-09-08T01:09:45;7.47;;;5.10;;
3311;SDS011;1668;49.648;8.570;2023-09-08T01:12:12;7.43;;;5.23;;
3311;SDS011;1668;49.648;8.570;2023-09-08T01:14:39;6.80;;;4.90;;
3311;SDS011;1668;49.648;8.570;2023-09-08T01:17:06;8.97;;;5.23;;
3311;SDS011;1668;49.648;8.570;2023-09-08T01:19:34;9.27;;;5.50;;
3311;SDS011;1668;49.648;8.570;2023-09-08T01:22:07;7.10;;;5.10;;
3311;SDS011;1668;49.648;8.570;2023-09-08T01:27:50;7.37;;;5.47;;
3311;SDS011;1668;49.648;8.570;2023-09-08T01:30:18;6.43;;;5.70;;
3311;SDS011;1668;49.648;8.570;2023-09-08T01:32:46;7.63;;;6.10;;
3311;SDS011;1668;49.648;8.570;2023-09-08T01:35:13;7.20;;;5.93;;
3311;SDS011;1668;49.648;8.570;2023-09-08T01:37:40;8.10;;;6.30;;
3311;SDS011;1668;49.648;8.570;2023-09-08T01:40:08;7.93;;;5.90;;
3311;SDS011;1668;49.648;8.570;2023-09-08T01:42:37;7.03;;;5.93;;
3311;SDS011;1668;49.648;8.570;2023-09-08T01:45:04;7.27;;;4.93;;
3311;SDS011;1668;49.648;8.570;2023-09-08T01:47:32;8.07;;;6.07;;
3311;SDS011;1668;49.648;8.570;2023-09-08T01:49:59;9.10;;;5.83;;
3311;SDS011;1668;49.648;8.570;2023-09-08T01:52:26;8.97;;;6.23;;
3311;SDS011;1668;49.648;8.570;2023-09-08T01:54:52;9.20;;;6.20;;
3311;SDS011;1668;49.648;8.570;2023-09-08T01:57:19;8.63;;;5.87;;
3311;SDS011;1668;49.648;8.570;2023-09-08T01:59:47;7.73;;;6.10;;
3311;SDS011;1668;49.648;8.570;2023-09-08T02:02:14;10.00;;;6.50;;
3311;SDS011;1668;49.648;8.570;2023-09-08T02:04:41;7.53;;;6.10;;
3311;SDS011;1668;49.648;8.570;2023-09-08T02:07:07;9.80;;;5.80;;
3311;SDS011;1668;49.648;8.570;2023-09-08T02:09:35;7.53;;;5.43;;
3311;SDS011;1668;49.648;8.570;2023-09-08T02:12:03;7.40;;;6.37;;
3311;SDS011;1668;49.648;8.570;2023-09-08T02:14:30;8.83;;;5.70;;
3311;SDS011;1668;49.648;8.570;2023-09-08T02:16:58;9.53;;;6.20;;
3311;SDS011;1668;49.648;8.570;2023-09-08T02:19:25;6.33;;;5.40;;
3311;SDS011;1668;49.648;8.570;2023-09-08T02:21:52;8.50;;;6.17;;
3311;SDS011;1668;49.648;8.570;2023-09-08T02:24:18;8.20;;;6.37;;
3311;SDS011;1668;49.648;8.570;2023-09-08T02:26:45;7.70;;;5.40;;
3311;SDS011;1668;49.648;8.570;2023-09-08T02:29:12;7.83;;;5.67;;
3311;SDS011;1668;49.648;8.570;2023-09-08T02:31:39;7.47;;;6.00;;
3311;SDS011;1668;49.648;8.570;2023-09-08T02:34:07;8.77;;;5.97;;
3311;SDS011;1668;49.648;8.570;2023-09-08T02:36:34;8.33;;;5.93;;
3311;SDS011;1668;49.648;8.570;2023-09-08T02:39:01;7.87;;;6.27;;
3311;SDS011;1668;49.648;8.570;2023-09-08T02:41:27;8.87;;;7.07;;
3311;SDS011;1668;49.648;8.570;2023-09-08T02:43:54;12.73;;;7.17;;
3311;SDS011;1668;49.648;8.570;2023-09-08T02:46:21;10.93;;;6.40;;
3311;SDS011;1668;49.648;8.570;2023-09-08T02:48:48;8.17;;;6.90;;
3311;SDS011;1668;49.648;8.570;2023-09-08T02:51:16;10.93;;;6.60;;
3311;SDS011;1668;49.648;8.570;2023-09-08T02:53:43;13.53;;;7.57;;
3311;SDS011;1668;49.648;8.570;2023-09-08T02:56:09;14.20;;;7.20;;
3311;SDS011;1668;49.648;8.570;2023-09-08T02:58:36;11.63;;;7.30;;
3311;SDS011;1668;49.648;8.570;2023-09-08T03:01:09;8.10;;;6.40;;
3311;SDS011;1668;49.648;8.570;2023-09-08T03:03:38;9.33;;;7.53;;
3311;SDS011;1668;49.648;8.570;2023-09-08T03:06:05;8.20;;;6.50;;
3311;SDS011;1668;49.648;8.570;2023-09-08T03:08:33;8.77;;;7.40;;
3311;SDS011;1668;49.648;8.570;2023-09-08T03:11:02;10.83;;;7.20;;
3311;SDS011;1668;49.648;8.570;2023-09-08T03:13:29;9.23;;;7.40;;
3311;SDS011;1668;49.648;8.570;2023-09-08T03:15:56;10.70;;;7.20;;
3311;SDS011;1668;49.648;8.570;2023-09-08T03:18:23;10.17;;;8.20;;
3311;SDS011;1668;49.648;8.570;2023-09-08T03:20:49;10.10;;;7.20;;
3311;SDS011;1668;49.648;8.570;2023-09-08T03:23:16;17.30;;;8.30;;
3311;SDS011;1668;49.648;8.570;2023-09-08T03:25:45;10.43;;;7.40;;
3311;SDS011;1668;49.648;8.570;2023-09-08T03:28:11;9.17;;;7.50;;
3311;SDS011;1668;49.648;8.570;2023-09-08T03:30:38;10.83;;;7.60;;
3311;SDS011;1668;49.648;8.570;2023-09-08T03:33:05;9.40;;;7.80;;
3311;SDS011;1668;49.648;8.570;2023-09-08T03:35:32;12.07;;;8.10;;
3311;SDS011;1668;49.648;8.570;2023-09-08T03:37:59;9.93;;;7.80;;
3311;SDS011;1668;49.648;8.570;2023-09-08T03:40:25;9.03;;;8.03;;
3311;SDS011;1668;49.648;8.570;2023-09-08T03:42:53;9.60;;;8.10;;
3311;SDS011;1668;49.648;8.570;2023-09-08T03:45:20;10.53;;;7.93;;
3311;SDS011;1668;49.648;8.570;2023-09-08T03:47:47;9.37;;;7.13;;
3311;SDS011;1668;49.648;8.570;2023-09-08T03:50:14;9.30;;;7.03;;
3311;SDS011;1668;49.648;8.570;2023-09-08T03:52:41;13.87;;;7.77;;
3311;SDS011;1668;49.648;8.570;2023-09-08T03:55:08;10.77;;;7.37;;
3311;SDS011;1668;49.648;8.570;2023-09-08T03:57:34;9.47;;;7.40;;
3311;SDS011;1668;49.648;8.570;2023-09-08T04:00:03;9.93;;;7.77;;
3311;SDS011;1668;49.648;8.570;2023-09-08T04:02:31;9.90;;;8.40;;
3311;SDS011;1668;49.648;8.570;2023-09-08T04:04:58;13.83;;;8.10;;
3311;SDS011;1668;49.648;8.570;2023-09-08T04:07:25;14.63;;;8.17;;
3311;SDS011;1668;49.648;8.570;2023-09-08T04:09:52;8.53;;;7.27;;
3311;SDS011;1668;49.648;8.570;2023-09-08T04:12:19;11.70;;;8.30;;
3311;SDS011;1668;49.648;8.570;2023-09-08T04:14:45;17.77;;;7.87;;
3311;SDS011;1668;49.648;8.570;2023-09-08T04:17:15;11.50;;;7.90;;
3311;SDS011;1668;49.648;8.570;2023-09-08T04:19:42;12.70;;;8.40;;
3311;SDS011;1668;49.648;8.570;2023-09-08T04:22:08;10.10;;;7.57;;
3311;SDS011;1668;49.648;8.570;2023-09-08T04:24:35;8.60;;;7.03;;
3311;SDS011;1668;49.648;8.570;2023-09-08T04:27:02;8.87;;;7.63;;
3311;SDS011;1668;49.648;8.570;2023-09-08T04:29:29;9.23;;;7.30;;
3311;SDS011;1668;49.648;8.570;2023-09-08T04:31:56;12.27;;;7.20;;
3311;SDS011;1668;49.648;8.570;2023-09-08T04:34:24;8.80;;;7.50;;
3311;SDS011;1668;49.648;8.570;2023-09-08T04:36:51;13.30;;;8.00;;
3311;SDS011;1668;49.648;8.570;2023-09-08T04:39:18;9.20;;;7.07;;
3311;SDS011;1668;49.648;8.570;2023-09-08T04:41:45;13.33;;;7.60;;
3311;SDS011;1668;49.648;8.570;2023-09-08T04:44:11;8.90;;;7.50;;
3311;SDS011;1668;49.648;8.570;2023-09-08T04:46:38;11.00;;;8.10;;
3311;SDS011;1668;49.648;8.570;2023-09-08T04:49:05;13.13;;;7.83;;
3311;SDS011;1668;49.648;8.570;2023-09-08T04:51:33;10.00;;;7.80;;
3311;SDS011;1668;49.648;8.570;2023-09-08T04:54:00;9.83;;;7.37;;
3311;SDS011;1668;49.648;8.570;2023-09-08T04:56:26;10.47;;;7.90;;
3311;SDS011;1668;49.648;8.570;2023-09-08T04:58:53;8.70;;;6.13;;
3311;SDS011;1668;49.648;8.570;2023-09-08T05:01:21;8.73;;;6.97;;
3311;SDS011;1668;49.648;8.570;2023-09-08T05:03:47;11.40;;;7.50;;
3311;SDS011;1668;49.648;8.570;2023-09-08T05:06:14;10.43;;;8.10;;
3311;SDS011;1668;49.648;8.570;2023-09-08T05:08:42;12.40;;;7.50;;
3311;SDS011;1668;49.648;8.570;2023-09-08T05:11:09;13.70;;;6.87;;
3311;SDS011;1668;49.648;8.570;2023-09-08T05:13:36;12.07;;;7.80;;
3311;SDS011;1668;49.648;8.570;2023-09-08T05:16:03;9.07;;;7.10;;
3311;SDS011;1668;49.648;8.570;2023-09-08T05:18:38;11.63;;;7.53;;
3311;SDS011;1668;49.648;8.570;2023-09-08T05:21:05;13.93;;;7.93;;
3311;SDS011;1668;49.648;8.570;2023-09-08T05:23:32;9.27;;;6.73;;
3311;SDS011;1668;49.648;8.570;2023-09-08T05:26:00;12.00;;;8.17;;
3311;SDS011;1668;49.648;8.570;2023-09-08T05:28:27;10.10;;;8.63;;
3311;SDS011;1668;49.648;8.570;2023-09-08T05:30:54;10.63;;;7.97;;
3311;SDS011;1668;49.648;8.570;2023-09-08T05:33:21;10.63;;;8.77;;
3311;SDS011;1668;49.648;8.570;2023-09-08T05:35:47;12.60;;;8.90;;
3311;SDS011;1668;49.648;8.570;2023-09-08T05:38:14;9.33;;;8.03;;
3311;SDS011;1668;49.648;8.570;2023-09-08T05:40:41;13.60;;;9.30;;
3311;SDS011;1668;49.648;8.570;2023-09-08T05:43:10;11.37;;;8.57;;
3311;SDS011;1668;49.648;8.570;2023-09-08T05:45:37;11.37;;;8.50;;
3311;SDS011;1668;49.648;8.570;2023-09-08T05:48:04;10.30;;;8.83;;
3311;SDS011;1668;49.648;8.570;2023-09-08T05:50:31;11.73;;;8.40;;
3311;SDS011;1668;49.648;8.570;2023-09-08T05:52:57;12.97;;;9.07;;
3311;SDS011;1668;49.648;8.570;2023-09-08T05:55:24;12.33;;;8.53;;
3311;SDS011;1668;49.648;8.570;2023-09-08T05:57:51;12.00;;;8.97;;
3311;SDS011;1668;49.648;8.570;2023-09-08T06:00:19;11.43;;;8.53;;
3311;SDS011;1668;49.648;8.570;2023-09-08T06:02:47;10.63;;;8.37;;
3311;SDS011;1668;49.648;8.570;2023-09-08T06:05:14;12.13;;;8.97;;
3311;SDS011;1668;49.648;8.570;2023-09-08T06:07:40;13.07;;;8.90;;
3311;SDS011;1668;49.648;8.570;2023-09-08T06:10:07;12.03;;;8.53;;
3311;SDS011;1668;49.648;8.570;2023-09-08T06:12:35;11.77;;;9.20;;
3311;SDS011;1668;49.648;8.570;2023-09-08T06:15:02;13.60;;;9.13;;
3311;SDS011;1668;49.648;8.570;2023-09-08T06:17:30;13.00;;;9.07;;
3311;SDS011;1668;49.648;8.570;2023-09-08T06:19:57;15.00;;;8.73;;
3311;SDS011;1668;49.648;8.570;2023-09-08T06:22:24;11.37;;;8.67;;
3311;SDS011;1668;49.648;8.570;2023-09-08T06:24:51;12.63;;;8.60;;
3311;SDS011;1668;49.648;8.570;2023-09-08T06:27:17;13.43;;;8.90;;
3311;SDS011;1668;49.648;8.570;2023-09-08T06:29:44;14.60;;;8.70;;
3311;SDS011;1668;49.648;8.570;2023-09-08T06:32:11;13.10;;;9.37;;
3311;SDS011;1668;49.648;8.570;2023-09-08T06:34:39;12.73;;;8.30;;
3311;SDS011;1668;49.648;8.570;2023-09-08T06:37:07;11.70;;;8.03;;
3311;SDS011;1668;49.648;8.570;2023-09-08T06:39:34;10.80;;;8.10;;
3311;SDS011;1668;49.648;8.570;2023-09-08T06:42:01;11.07;;;8.50;;
3311;SDS011;1668;49.648;8.570;2023-09-08T06:44:29;12.70;;;8.20;;
3311;SDS011;1668;49.648;8.570;2023-09-08T06:46:56;15.67;;;8.70;;
3311;SDS011;1668;49.648;8.570;2023-09-08T06:49:22;10.70;;;7.33;;
3311;SDS011;1668;49.648;8.570;2023-09-08T06:51:50;11.70;;;7.73;;
3311;SDS011;1668;49.648;8.570;2023-09-08T06:54:17;12.43;;;8.07;;
3311;SDS011;1668;49.648;8.570;2023-09-08T06:56:44;11.90;;;7.67;;
3311;SDS011;1668;49.648;8.570;2023-09-08T06:59:11;12.47;;;7.60;;
3311;SDS011;1668;49.648;8.570;2023-09-08T07:01:38;12.73;;;8.60;;
3311;SDS011;1668;49.648;8.570;2023-09-08T07:04:05;9.80;;;7.53;;
3311;SDS011;1668;49.648;8.570;2023-09-08T07:06:32;13.60;;;8.03;;
3311;SDS011;1668;49.648;8.570;2023-09-08T07:09:01;10.73;;;7.80;;
3311;SDS011;1668;49.648;8.570;2023-09-08T07:11:28;11.60;;;7.97;;
3311;SDS011;1668;49.648;8.570;2023-09-08T07:13:55;9.60;;;8.60;;
3311;SDS011;1668;49.648;8.570;2023-09-08T07:16:22;14.20;;;8.30;;
3311;SDS011;1668;49.648;8.570;2023-09-08T07:18:49;10.70;;;7.63;;
3311;SDS011;1668;49.648;8.570;2023-09-08T07:21:16;15.97;;;7.80;;
3311;SDS011;1668;49.648;8.570;2023-09-08T07:23:43;9.33;;;7.60;;
3311;SDS011;1668;49.648;8.570;2023-09-08T07:26:11;15.63;;;8.37;;
3311;SDS011;1668;49.648;8.570;2023-09-08T07:28:38;10.43;;;7.53;;
3311;SDS011;1668;49.648;8.570;2023-09-08T07:31:05;9.17;;;7.30;;
3311;SDS011;1668;49.648;8.570;2023-09-08T07:33:34;8.73;;;7.23;;
3311;SDS011;1668;49.648;8.570;2023-09-08T07:36:05;10.00;;;6.57;;
3311;SDS011;1668;49.648;8.570;2023-09-08T07:38:32;9.10;;;7.10;;
3311;SDS011;1668;49.648;8.570;2023-09-08T07:40:59;10.63;;;7.03;;
3311;SDS011;1668;49.648;8.570;2023-09-08T07:43:28;11.40;;;6.80;;
3311;SDS011;1668;49.648;8.570;2023-09-08T07:45:55;10.97;;;6.80;;
3311;SDS011;1668;49.648;8.570;2023-09-08T07:48:22;7.97;;;6.83;;
3311;SDS011;1668;49.648;8.570;2023-09-08T07:50:49;9.00;;;7.07;;
3311;SDS011;1668;49.648;8.570;2023-09-08T07:53:16;8.70;;;6.77;;
3311;SDS011;1668;49.648;8.570;2023-09-08T07:55:43;8.33;;;6.50;;
3311;SDS011;1668;49.648;8.570;2023-09-08T07:58:09;7.97;;;6.20;;
3311;SDS011;1668;49.648;8.570;2023-09-08T08:00:38;9.70;;;7.30;;
3311;SDS011;1668;49.648;8.570;2023-09-08T08:03:04;8.60;;;6.60;;
3311;SDS011;1668;49.648;8.570;2023-09-08T08:05:32;9.43;;;6.47;;
3311;SDS011;1668;49.648;8.570;2023-09-08T08:07:59;9.33;;;6.83;;
3311;SDS011;1668;49.648;8.570;2023-09-08T08:10:25;8.23;;;6.30;;
3311;SDS011;1668;49.648;8.570;2023-09-08T08:12:52;8.53;;;6.60;;
3311;SDS011;1668;49.648;8.570;2023-09-08T08:15:19;8.30;;;6.67;;
3311;SDS011;1668;49.648;8.570;2023-09-08T08:17:48;8.60;;;6.57;;
3311;SDS011;1668;49.648;8.570;2023-09-08T08:20:15;7.20;;;5.80;;
3311;SDS011;1668;49.648;8.570;2023-09-08T08:22:43;7.87;;;6.17;;
3311;SDS011;1668;49.648;8.570;2023-09-08T08:25:11;8.20;;;6.23;;
3311;SDS011;1668;49.648;8.570;2023-09-08T08:27:38;7.13;;;5.90;;
3311;SDS011;1668;49.648;8.570;2023-09-08T08:30:06;6.93;;;6.00;;
3311;SDS011;1668;49.648;8.570;2023-09-08T08:32:33;6.67;;;5.97;;
3311;SDS011;1668;49.648;8.570;2023-09-08T08:35:02;8.40;;;6.13;;
3311;SDS011;1668;49.648;8.570;2023-09-08T08:37:30;9.37;;;6.37;;
3311;SDS011;1668;49.648;8.570;2023-09-08T08:39:57;9.70;;;6.67;;
3311;SDS011;1668;49.648;8.570;2023-09-08T08:42:24;7.97;;;6.47;;
3311;SDS011;1668;49.648;8.570;2023-09-08T08:44:58;6.87;;;5.50;;
3311;SDS011;1668;49.648;8.570;2023-09-08T08:47:25;8.60;;;7.00;;
3311;SDS011;1668;49.648;8.570;2023-09-08T08:49:54;7.60;;;6.77;;
3311;SDS011;1668;49.648;8.570;2023-09-08T08:52:24;9.13;;;6.20;;
3311;SDS011;1668;49.648;8.570;2023-09-08T08:54:52;10.93;;;6.40;;
3311;SDS011;1668;49.648;8.570;2023-09-08T08:57:19;12.07;;;6.23;;
3311;SDS011;1668;49.648;8.570;2023-09-08T08:59:47;10.70;;;6.13;;
3311;SDS011;1668;49.648;8.570;2023-09-08T09:02:16;8.47;;;5.90;;
3311;SDS011;1668;49.648;8.570;2023-09-08T09:04:45;7.40;;;5.90;;
3311;SDS011;1668;49.648;8.570;2023-09-08T09:07:12;12.93;;;6.00;;
3311;SDS011;1668;49.648;8.570;2023-09-08T09:09:41;8.70;;;5.33;;
3311;SDS011;1668;49.648;8.570;2023-09-08T09:12:08;9.17;;;5.93;;
3311;SDS011;1668;49.648;8.570;2023-09-08T09:14:35;12.30;;;6.47;;
3311;SDS011;1668;49.648;8.570;2023-09-08T09:17:02;8.60;;;6.43;;
3311;SDS011;1668;49.648;8.570;2023-09-08T09:19:30;12.57;;;6.10;;
3311;SDS011;1668;49.648;8.570;2023-09-08T09:21:58;15.50;;;7.00;;
3311;SDS011;1668;49.648;8.570;2023-09-08T09:24:28;9.03;;;5.93;;
3311;SDS011;1668;49.648;8.570;2023-09-08T09:26:58;8.43;;;5.70;;
3311;SDS011;1668;49.648;8.570;2023-09-08T09:29:26;7.23;;;5.80;;
3311;SDS011;1668;49.648;8.570;2023-09-08T09:31:54;6.90;;;5.87;;
3311;SDS011;1668;49.648;8.570;2023-09-08T09:34:22;8.23;;;6.00;;
3311;SDS011;1668;49.648;8.570;2023-09-08T09:36:50;8.40;;;5.80;;
3311;SDS011;1668;49.648;8.570;2023-09-08T09:39:17;7.10;;;5.57;;
3311;SDS011;1668;49.648;8.570;2023-09-08T09:41:45;7.87;;;5.60;;
3311;SDS011;1668;49.648;8.570;2023-09-08T09:44:13;8.00;;;5.53;;
3311;SDS011;1668;49.648;8.570;2023-09-08T09:46:44;7.37;;;5.37;;
3311;SDS011;1668;49.648;8.570;2023-09-08T09:49:12;7.23;;;5.83;;
3311;SDS011;1668;49.648;8.570;2023-09-08T09:51:40;11.03;;;5.10;;
3311;SDS011;1668;49.648;8.570;2023-09-08T09:54:08;10.43;;;5.83;;
3311;SDS011;1668;49.648;8.570;2023-09-08T09:56:36;8.87;;;5.50;;
3311;SDS011;1668;49.648;8.570;2023-09-08T09:59:04;6.27;;;5.67;;
3311;SDS011;1668;49.648;8.570;2023-09-08T10:01:35;9.57;;;6.27;;
3311;SDS011;1668;49.648;8.570;2023-09-08T10:04:02;11.17;;;6.13;;
3311;SDS011;1668;49.648;8.570;2023-09-08T10:06:30;6.83;;;4.87;;
3311;SDS011;1668;49.648;8.570;2023-09-08T10:08:58;9.23;;;5.90;;
3311;SDS011;1668;49.648;8.570;2023-09-08T10:11:28;7.00;;;5.83;;
3311;SDS011;1668;49.648;8.570;2023-09-08T10:13:58;12.73;;;5.50;;
3311;SDS011;1668;49.648;8.570;2023-09-08T10:16:26;6.20;;;5.53;;
3311;SDS011;1668;49.648;8.570;2023-09-08T10:18:55;7.27;;;6.00;;
3311;SDS011;1668;49.648;8.570;2023-09-08T10:21:25;6.67;;;5.97;;
3311;SDS011;1668;49.648;8.570;2023-09-08T10:23:54;6.50;;;4.90;;
3311;SDS011;1668;49.648;8.570;2023-09-08T10:26:29;7.90;;;6.00;;
3311;SDS011;1668;49.648;8.570;2023-09-08T10:28:58;6.90;;;5.80;;
3311;SDS011;1668;49.648;8.570;2023-09-08T10:31:25;10.10;;;6.30;;
3311;SDS011;1668;49.648;8.570;2023-09-08T10:33:53;7.40;;;5.97;;
3311;SDS011;1668;49.648;8.570;2023-09-08T10:36:22;8.50;;;6.13;;
3311;SDS011;1668;49.648;8.570;2023-09-08T10:38:49;6.90;;;5.63;;
3311;SDS011;1668;49.648;8.570;2023-09-08T10:41:26;7.50;;;5.50;;
3311;SDS011;1668;49.648;8.570;2023-09-08T10:43:57;6.70;;;5.90;;
3311;SDS011;1668;49.648;8.570;2023-09-08T10:46:28;6.60;;;5.27;;
3311;SDS011;1668;49.648;8.570;2023-09-08T10:49:02;8.07;;;5.80;;
3311;SDS011;1668;49.648;8.570;2023-09-08T10:51:29;6.13;;;5.30;;
3311;SDS011;1668;49.648;8.570;2023-09-08T10:53:56;6.67;;;5.07;;
3311;SDS011;1668;49.648;8.570;2023-09-08T10:56:26;6.20;;;5.20;;
3311;SDS011;1668;49.648;8.570;2023-09-08T10:58:54;8.27;;;5.90;;
3311;SDS011;1668;49.648;8.570;2023-09-08T11:01:21;7.50;;;5.47;;
3311;SDS011;1668;49.648;8.570;2023-09-08T11:03:51;7.00;;;5.83;;
3311;SDS011;1668;49.648;8.570;2023-09-08T11:06:20;6.30;;;5.53;;
3311;SDS011;1668;49.648;8.570;2023-09-08T11:08:48;7.43;;;5.20;;
3311;SDS011;1668;49.648;8.570;2023-09-08T11:11:18;13.37;;;5.80;;
3311;SDS011;1668;49.648;8.570;2023-09-08T11:13:45;6.40;;;5.20;;
3311;SDS011;1668;49.648;8.570;2023-09-08T11:16:12;6.77;;;5.30;;
3311;SDS011;1668;49.648;8.570;2023-09-08T11:18:40;7.20;;;5.00;;
3311;SDS011;1668;49.648;8.570;2023-09-08T11:21:07;8.27;;;5.13;;
3311;SDS011;1668;49.648;8.570;2023-09-08T11:23:37;7.53;;;5.63;;
3311;SDS011;1668;49.648;8.570;2023-09-08T11:26:05;5.90;;;5.27;;
3311;SDS011;1668;49.648;8.570;2023-09-08T11:28:34;8.43;;;5.30;;
3311;SDS011;1668;49.648;8.570;2023-09-08T11:31:00;7.80;;;5.57;;
3311;SDS011;1668;49.648;8.570;2023-09-08T11:33:32;8.57;;;5.60;;
3311;SDS011;1668;49.648;8.570;2023-09-08T11:35:59;7.37;;;5.40;;
3311;SDS011;1668;49.648;8.570;2023-09-08T11:38:26;9.70;;;5.97;;
3311;SDS011;1668;49.648;8.570;2023-09-08T11:40:57;6.70;;;5.17;;
3311;SDS011;1668;49.648;8.570;2023-09-08T11:43:24;6.50;;;5.40;;
3311;SDS011;1668;49.648;8.570;2023-09-08T11:45:52;6.07;;;5.50;;
3311;SDS011;1668;49.648;8.570;2023-09-08T11:48:19;6.30;;;5.40;;
3311;SDS011;1668;49.648;8.570;2023-09-08T11:50:46;12.23;;;5.53;;
3311;SDS011;1668;49.648;8.570;2023-09-08T11:53:13;8.33;;;5.30;;
3311;SDS011;1668;49.648;8.570;2023-09-08T11:55:46;7.13;;;5.17;;
3311;SDS011;1668;49.648;8.570;2023-09-08T11:58:14;5.63;;;5.07;;
3311;SDS011;1668;49.648;8.570;2023-09-08T12:00:42;9.43;;;5.67;;
3311;SDS011;1668;49.648;8.570;2023-09-08T12:03:13;9.23;;;5.43;;
3311;SDS011;1668;49.648;8.570;2023-09-08T12:05:41;6.20;;;5.60;;
3311;SDS011;1668;49.648;8.570;2023-09-08T12:08:09;9.93;;;5.87;;
3311;SDS011;1668;49.648;8.570;2023-09-08T12:10:40;7.50;;;5.37;;
3311;SDS011;1668;49.648;8.570;2023-09-08T12:13:08;6.50;;;5.07;;
3311;SDS011;1668;49.648;8.570;2023-09-08T12:15:37;9.20;;;5.60;;
3311;SDS011;1668;49.648;8.570;2023-09-08T12:18:06;7.10;;;5.53;;
3311;SDS011;1668;49.648;8.570;2023-09-08T12:20:34;7.10;;;4.97;;
3311;SDS011;1668;49.648;8.570;2023-09-08T12:23:02;6.10;;;5.13;;
3311;SDS011;1668;49.648;8.570;2023-09-08T12:25:30;7.30;;;5.53;;
3311;SDS011;1668;49.648;8.570;2023-09-08T12:27:57;5.00;;;4.50;;
3311;SDS011;1668;49.648;8.570;2023-09-08T12:30:25;8.87;;;5.80;;
3311;SDS011;1668;49.648;8.570;2023-09-08T12:32:57;6.63;;;5.50;;
3311;SDS011;1668;49.648;8.570;2023-09-08T12:35:24;7.63;;;5.17;;
3311;SDS011;1668;49.648;8.570;2023-09-08T12:37:53;8.27;;;5.80;;
3311;SDS011;1668;49.648;8.570;2023-09-08T12:40:22;6.97;;;5.60;;
3311;SDS011;1668;49.648;8.570;2023-09-08T12:42:50;10.73;;;5.60;;
3311;SDS011;1668;49.648;8.570;2023-09-08T12:45:17;6.37;;;5.47;;
3311;SDS011;1668;49.648;8.570;2023-09-08T12:47:44;7.00;;;5.33;;
3311;SDS011;1668;49.648;8.570;2023-09-08T12:50:12;7.03;;;5.60;;
3311;SDS011;1668;49.648;8.570;2023-09-08T12:52:39;7.90;;;5.60;;
3311;SDS011;1668;49.648;8.570;2023-09-08T12:55:06;8.10;;;5.50;;
3311;SDS011;1668;49.648;8.570;2023-09-08T12:57:33;11.93;;;6.17;;
3311;SDS011;1668;49.648;8.570;2023-09-08T13:00:00;7.80;;;5.50;;
3311;SDS011;1668;49.648;8.570;2023-09-08T13:02:27;6.70;;;5.60;;
3311;SDS011;1668;49.648;8.570;2023-09-08T13:04:54;6.10;;;5.27;;
3311;SDS011;1668;49.648;8.570;2023-09-08T13:07:22;10.80;;;5.27;;
3311;SDS011;1668;49.648;8.570;2023-09-08T13:09:49;6.90;;;5.30;;
3311;SDS011;1668;49.648;8.570;2023-09-08T13:12:16;6.30;;;5.30;;
3311;SDS011;1668;49.648;8.570;2023-09-08T13:14:43;7.93;;;5.57;;
3311;SDS011;1668;49.648;8.570;2023-09-08T13:17:10;7.70;;;5.33;;
3311;SDS011;1668;49.648;8.570;2023-09-08T13:19:37;12.70;;;5.20;;
3311;SDS011;1668;49.648;8.570;2023-09-08T13:22:05;6.23;;;4.90;;
3311;SDS011;1668;49.648;8.570;2023-09-08T13:24:33;6.53;;;5.37;;
3311;SDS011;1668;49.648;8.570;2023-09-08T13:27:00;5.97;;;5.40;;
3311;SDS011;1668;49.648;8.570;2023-09-08T13:29:27;11.73;;;5.47;;
3311;SDS011;1668;49.648;8.570;2023-09-08T13:31:54;8.90;;;4.93;;
3311;SDS011;1668;49.648;8.570;2023-09-08T13:34:22;6.07;;;4.87;;
3311;SDS011;1668;49.648;8.570;2023-09-08T13:36:49;5.33;;;4.83;;
3311;SDS011;1668;49.648;8.570;2023-09-08T13:39:16;6.60;;;5.07;;
3311;SDS011;1668;49.648;8.570;2023-09-08T13:41:46;9.30;;;5.47;;
3311;SDS011;1668;49.648;8.570;2023-09-08T13:44:13;7.07;;;4.87;;
3311;SDS011;1668;49.648;8.570;2023-09-08T13:46:40;6.30;;;5.63;;
3311;SDS011;1668;49.648;8.570;2023-09-08T13:49:07;5.60;;;5.07;;
3311;SDS011;1668;49.648;8.570;2023-09-08T13:51:34;8.60;;;5.40;;
3311;SDS011;1668;49.648;8.570;2023-09-08T13:54:01;6.90;;;5.13;;
3311;SDS011;1668;49.648;8.570;2023-09-08T13:56:28;7.90;;;5.90;;
3311;SDS011;1668;49.648;8.570;2023-09-08T13:58:56;9.40;;;5.73;;
3311;SDS011;1668;49.648;8.570;2023-09-08T14:01:23;8.30;;;5.00;;
3311;SDS011;1668;49.648;8.570;2023-09-08T14:03:49;8.87;;;5.20;;
3311;SDS011;1668;49.648;8.570;2023-09-08T14:06:17;6.07;;;4.73;;
3311;SDS011;1668;49.648;8.570;2023-09-08T14:08:44;9.00;;;5.30;;
3311;SDS011;1668;49.648;8.570;2023-09-08T14:11:11;5.43;;;4.40;;
3311;SDS011;1668;49.648;8.570;2023-09-08T14:13:38;6.73;;;5.50;;
3311;SDS011;1668;49.648;8.570;2023-09-08T14:16:06;7.80;;;5.60;;
3311;SDS011;1668;49.648;8.570;2023-09-08T14:18:33;7.43;;;5.53;;
3311;SDS011;1668;49.648;8.570;2023-09-08T14:21:00;6.43;;;4.67;;
3311;SDS011;1668;49.648;8.570;2023-09-08T14:23:27;6.10;;;5.10;;
3311;SDS011;1668;49.648;8.570;2023-09-08T14:25:55;5.90;;;4.90;;
3311;SDS011;1668;49.648;8.570;2023-09-08T14:28:21;6.30;;;4.83;;
3311;SDS011;1668;49.648;8.570;2023-09-08T14:30:49;5.90;;;5.03;;
3311;SDS011;1668;49.648;8.570;2023-09-08T14:33:17;5.80;;;5.30;;
3311;SDS011;1668;49.648;8.570;2023-09-08T14:35:44;6.90;;;4.90;;
3311;SDS011;1668;49.648;8.570;2023-09-08T14:38:16;5.73;;;5.10;;
3311;SDS011;1668;49.648;8.570;2023-09-08T14:40:43;5.50;;;4.57;;
3311;SDS011;1668;49.648;8.570;2023-09-08T14:43:10;6.40;;;4.97;;
3311;SDS011;1668;49.648;8.570;2023-09-08T14:45:38;7.80;;;4.47;;
3311;SDS011;1668;49.648;8.570;2023-09-08T14:48:05;5.10;;;4.63;;
3311;SDS011;1668;49.648;8.570;2023-09-08T14:50:34;6.17;;;4.30;;
3311;SDS011;1668;49.648;8.570;2023-09-08T14:53:01;8.63;;;4.90;;
3311;SDS011;1668;49.648;8.570;2023-09-08T14:55:27;4.93;;;4.43;;
3311;SDS011;1668;49.648;8.570;2023-09-08T14:57:54;6.17;;;4.40;;
3311;SDS011;1668;49.648;8.570;2023-09-08T15:00:21;5.70;;;3.80;;
3311;SDS011;1668;49.648;8.570;2023-09-08T15:02:48;4.47;;;4.07;;
3311;SDS011;1668;49.648;8.570;2023-09-08T15:05:15;4.20;;;3.70;;
3311;SDS011;1668;49.648;8.570;2023-09-08T15:07:43;4.70;;;4.30;;
3311;SDS011;1668;49.648;8.570;2023-09-08T15:10:10;7.77;;;4.30;;
3311;SDS011;1668;49.648;8.570;2023-09-08T15:12:37;5.17;;;4.10;;
3311;SDS011;1668;49.648;8.570;2023-09-08T15:15:05;6.57;;;3.87;;